الصفحة الرئيسية
METAR-TAF:

METAR-TAF

مطار :

مطار سيشل الدولي

فيكتوريا, ماهيه, سيشيل

دائرة عرض: 04-40S, خط طول: 055-31E, ارتفاع: 3 متر

مراقبة الطقس الحالي

تاريخ ووقت الإصدار 1ساعة و 3 دقيقة قبل الساعة 18:00UTC
ريح 3 عقدة من الجنوب/الجنوب الغربي, الاتجاه يتراوح بين الشرق/الجنوب الشرقي و الغرب
درجة الحرارة 28°درجة مئوية
الرطوبة 74%
ضغط 1013 hPa
الرؤية 10 كم أو أكثر
غيوم قليلة على ارتفاع 2400 قدم
غيوم مفككة على ارتفاع 8000 قدم

METAR: FSIA 171800Z 20003KT 110V270 9999 FEW024 BKN080 28/23 Q1013 NOSIG

زمن: 23:03 (19:03 UTC)

توقعات

تاريخ ووقت الإصدار 2ساعات و 2 دقيقة قبل الساعة 17:01UTC
التوقعات صالحة من17 الساعة 18 UTC إلى 18 الساعة 18 UTC
ريح 5 عقدة من الجنوب
الرؤية 10 كم أو أكثر
غيوم متفرقة على ارتفاع 2300 قدم
نظرية الاحتمالات 40% :
مؤقت
من 17 الساعة 18 UTC إلى 17 الساعة 24 UTC
غيوم مفككة على ارتفاع 2000 قدم
زخات من الأمطار الخفيفة

TAF: FSIA 171701Z 1718/1818 19005KT 9999 SCT023 PROB40 TEMPO 1718/1724 -SHRA BKN020

أرصاد الطقس والتوقعات من أكثر من 4000 مطار (تقارير الطقس للمطار METAR والتنبؤ بالطقس بالمطارTAF).

المحطات المتاحة هي النقط الصفراء والحمراء على الخريطة.

حرك المؤشر فوق النقطة لمعرفة اسم المحطة.

ثم انقر لمعرفة أرصاد وتوقعات الطقس.

لتغيير الخارطة: اضغط على الأزرار الخضراء مع رمز الصليب الأسود للتكبير. على الزر الأخضر مع شرطة للتصغير، أو على الأسهم الخضراء للخرائط المجاورة.


METAR-TAF: